Gables by the Sea, Florida
Current Conditions -  °F | °C
As of 9:53 PM on Tuesday 25 Nov 2014 (Local Time) from KTMB Reporting Station
Scattered Clouds Scattered Clouds  
Wind Chill: 78°   Ceiling: Unl
Heat Index: 81°   Visibility: 10mi
Dew Point: 75°   Wind: 5mph
Humidity: 90%   Direction: 150°SSE
Pressure: 29.97"   Gusts: NA
Location:  25.6668°N, 80.2981°W
Report Text: KTMB 260253Z 15004KT 10SM SCT070 26/24 A2997 RMK AO2 SLP149 T02560239 50002
Loading
Personal Weather Stations






























Interactive Weather Map New forecast layout! Learn more

10-Day Weather Forecast

Advertisements
Track Severe Weather on mobile